Lancaster, United Kingdom

3:26 PM BST on August 04, 2015 (GMT +0100)
Moss Edge Farm Cockerham UK | | Change Station
CLOSE
Current Station
Personal Weather Station
Location: Lancaster LA2 0ER, England
Elevation: 16 ft
Nearby Weather Stations

Elev 16 ft 53.94 °N, 2.85 °W | Updated 12 days ago

Partly Cloudy
Partly Cloudy
64 °F
Feels Like 64 °F
N
20
Wind Variable Wind from SW
Gusts 28 mph

Today
High -- | Low -- °F
--% Chance of Precip.
Yesterday
High -- | Low -- °F
Precip. -- in
5:29 AM 9:04 PM
Waning Gibbous, 77% visible
Pressure 29.77 in
Visibility 6.2 miles
Clouds Few 4500 ft
Dew Point 55 °F
Humidity 72%
Rainfall in
Snow Depth Not available.
UV 6 out of 12
Pollen Not available.
Air Quality Not available.
Flu Activity Not available.
METAR EGNH 041420Z 22020KT 9999 FEW045 18/14 Q1008

More Conditions Fewer Conditions

Pressure 29.77 in
Visibility 6.2 miles
Clouds Few 4500 ft
Dew Point 55 °F
Humidity 72%
Rainfall in
Snow Depth Not available.
UV 6 out of 12
Pollen Not available.
Air Quality Not available.
Flu Activity Not available.
METAR EGNH 041420Z 22020KT 9999 FEW045 18/14 Q1008

More Conditions Fewer Conditions

10-Day Weather Forecast

×

Almanac

Astronomy

Aug. 04, 2015 Rise Set
Actual Time
Civil Twilight
Nautical Twilight
Astronomical Twilight
Moon
Length of Visible Light
Length of Day
Tomorrow will be .
, % of the Moon is Illuminated

Today's Extremes

Country Highs Country Lows

Community

WunderPhotos

Upload Photos

1,843,917 photos uploaded!

WunderBlogs® & News

Nearby

Air Quality

  Air Quality AQ Index Pollutant
Not available.

Snow Depth

Station Depth Elevation

Earthquake Activity

City Distance Mag. Time & Date
Minimum magnitude displayed is 2.5.

Coastal Water Temperatures

Place Temperature

Stations

Nearby Weather Stations

Station Location Temp. Windchill Dew Point Humidity Wind Precip. Elev Updated Type